Hauptseite
METAR-TAF:

METAR-TAF

Flughäfen :

Flughafen Nakashibetsu

Nakashibetsu, Japan

Breite: 43-34N, Länge: 144-58E, Höhe: 66 m

Beobachtung

Neuester Wetterbericht von vor 1 Stunde und 11 Minuten, um 04:00 UTC
Wind 11 kt aus Nord/Nordwest, variierte zwischen West/Nordwest und Nord/Nordost
Temperatur -6°C
Luftfeuchtigkeit 73%
Luftdruck 1018 hPa
Sichtweite: 3200 m
Leicht bewölkt in der Höhe von 500 ft
Aufgelockert bewölkt in der Höhe von 700 ft
Durchbrochene Bewölkung in der Höhe von 1200 ft
Schneeschauer,

METAR: RJCN 280400Z 34011KT 300V020 3200 -SHSN FEW005 SCT007 BKN012 M06/M10 Q1018

Zeit: 14:11 (05:11 UTC)


TAF: fehlend

Wetterbeobachtungen und Prognosen von mehr als 4000 Flughäfen (METAR und TAF Bericht).

Die verfügbaren Stationen werden durch gelbe und rote Markierungen auf der Karte dargestellt.

Führen Sie die Maus auf sie, um den Namen der Station zu sehen.

Darauf klicken, um die Beobachtung von Wetterbeobachtungen und Prognosen zu sehen.

Um die Karte zu ändern : klicken Sie auf den grünen Tasten mit einem schwarzen Kreuz Zum Vergrößern, auf den grünen Button mit einem Gedankenstrich zu verkleinern, oder auf die grünen Pfeile für benachbarte Karten.


METAR-TAF: